Time;durP1;ratioP1;P1;durP2;ratioP2;P2;SDS_P1;SDS_P2;PMS_P1;PMS_P2;Temp;Humidity;BMP_temperature;BMP_pressure;BME280_temperature;BME280_humidity;BME280_pressure;Samples;Min_cycle;Max_cycle;Signal;HPM_P1;HPM_P2
2023/05/09 00:00:20;;;;;;;9.68;4.38;;;;;;;;;;5013005;28;20029;-74
2023/05/09 00:02:46;;;;;;;9.98;4.63;;;;;;;;;;5012890;28;20084;-74
2023/05/09 00:05:13;;;;;;;6.63;4.20;;;;;;;;;;5013128;28;20026;-74
2023/05/09 00:07:39;;;;;;;4.57;3.67;;;;;;;;;;5012695;28;20040;-74
2023/05/09 00:10:05;;;;;;;7.88;4.38;;;;;;;;;;5012916;28;20472;-74
2023/05/09 00:12:31;;;;;;;10.80;4.80;;;;;;;;;;5012974;28;20105;-74
2023/05/09 00:14:58;;;;;;;7.80;4.20;;;;;;;;;;5012703;28;20460;-74
2023/05/09 00:17:24;;;;;;;5.68;3.88;;;;;;;;;;5012852;28;20026;-75
2023/05/09 00:19:51;;;;;;;8.25;4.13;;;;;;;;;;4996469;28;20030;-75
2023/05/09 00:22:20;;;;;;;8.73;4.20;;;;;;;;;;4996966;28;20060;-75
2023/05/09 00:24:46;;;;;;;7.05;3.78;;;;;;;;;;5013201;28;20056;-75
2023/05/09 00:27:12;;;;;;;5.03;3.80;;;;;;;;;;5011156;28;20052;-75
2023/05/09 00:29:38;;;;;;;8.18;4.82;;;;;;;;;;5011518;28;20022;-73
2023/05/09 00:32:04;;;;;;;6.18;3.90;;;;;;;;;;5019500;28;20484;-73
2023/05/09 00:34:30;;;;;;;4.65;3.78;;;;;;;;;;5033856;23;20045;-78
2023/05/09 00:36:56;;;;;;;6.00;4.07;;;;;;;;;;5035491;28;20032;-78
2023/05/09 00:39:22;;;;;;;7.03;4.10;;;;;;;;;;5017763;28;20036;-78
2023/05/09 00:41:48;;;;;;;6.38;4.00;;;;;;;;;;5034814;28;20099;-78
2023/05/09 00:44:15;;;;;;;9.23;4.22;;;;;;;;;;5034372;28;20021;-78
2023/05/09 00:46:41;;;;;;;8.73;4.20;;;;;;;;;;5032712;28;20021;-78
2023/05/09 00:49:07;;;;;;;5.60;4.18;;;;;;;;;;5033985;28;20072;-78
2023/05/09 00:51:33;;;;;;;5.25;3.80;;;;;;;;;;5017478;28;20508;-78
2023/05/09 00:53:59;;;;;;;6.53;4.35;;;;;;;;;;5014305;28;20032;-78
2023/05/09 00:56:25;;;;;;;5.95;4.32;;;;;;;;;;5013412;28;20483;-78
2023/05/09 00:58:52;;;;;;;6.25;4.45;;;;;;;;;;5015513;28;20033;-78
2023/05/09 01:01:21;;;;;;;8.07;4.82;;;;;;;;;;5017450;28;20191;-78
2023/05/09 01:03:47;;;;;;;5.75;5.00;;;;;;;;;;5037946;28;20051;-78
2023/05/09 01:06:13;;;;;;;10.85;5.30;;;;;;;;;;5018676;28;20018;-78
2023/05/09 01:08:51;;;;;;;6.45;4.50;;;;;;;;;;5034137;28;20044;-79
2023/05/09 01:11:22;;;;;;;6.07;3.78;;;;;;;;;;5016431;28;20037;-77
2023/05/09 01:13:54;;;;;;;6.97;4.40;;;;;;;;;;5020225;28;20052;-77
2023/05/09 01:16:27;;;;;;;6.47;4.97;;;;;;;;;;5021533;28;20030;-78
2023/05/09 01:19:00;;;;;;;7.15;4.40;;;;;;;;;;5017962;28;20075;-78
2023/05/09 01:21:32;;;;;;;7.25;4.32;;;;;;;;;;5019031;28;20034;-79
2023/05/09 01:24:01;;;;;;;7.70;4.70;;;;;;;;;;5033760;28;20017;-78
2023/05/09 01:26:30;;;;;;;8.23;4.78;;;;;;;;;;5015431;28;20033;-77
2023/05/09 01:29:15;;;;;;;6.80;4.55;;;;;;;;;;5014401;28;20521;-77
2023/05/09 01:31:44;;;;;;;8.38;4.82;;;;;;;;;;5014194;28;20029;-77
2023/05/09 01:34:13;;;;;;;6.57;4.60;;;;;;;;;;5031427;28;20037;-77
2023/05/09 01:36:40;;;;;;;8.20;4.80;;;;;;;;;;5031745;28;20460;-77
2023/05/09 01:39:09;;;;;;;8.63;4.78;;;;;;;;;;5033023;28;20029;-77
2023/05/09 01:41:39;;;;;;;6.00;4.63;;;;;;;;;;5018222;28;20021;-77
2023/05/09 01:44:11;;;;;;;8.60;5.57;;;;;;;;;;5056893;23;20038;-76
2023/05/09 01:46:38;;;;;;;11.70;5.15;;;;;;;;;;5036158;28;20484;-76
2023/05/09 01:49:10;;;;;;;8.02;5.20;;;;;;;;;;5035668;28;20075;-76
2023/05/09 01:51:40;;;;;;;10.43;4.72;;;;;;;;;;5018314;28;20075;-76
2023/05/09 01:54:06;;;;;;;6.95;4.75;;;;;;;;;;5035915;28;20453;-75
2023/05/09 01:56:35;;;;;;;10.10;4.72;;;;;;;;;;5017780;28;20053;-76
2023/05/09 01:59:06;;;;;;;8.40;5.18;;;;;;;;;;5035448;28;20391;-75
2023/05/09 02:01:33;;;;;;;6.03;3.70;;;;;;;;;;5035432;28;20036;-76
2023/05/09 02:03:59;;;;;;;5.45;4.45;;;;;;;;;;5035471;28;20464;-76
2023/05/09 02:06:28;;;;;;;8.80;5.07;;;;;;;;;;5017437;28;20503;-77
2023/05/09 02:08:54;;;;;;;10.13;4.78;;;;;;;;;;5017228;28;20056;-77
2023/05/09 02:11:21;;;;;;;7.72;5.10;;;;;;;;;;5017414;28;20025;-77
2023/05/09 02:13:47;;;;;;;7.03;5.25;;;;;;;;;;5017407;28;20025;-77
2023/05/09 02:16:13;;;;;;;8.75;5.15;;;;;;;;;;5017652;28;20518;-77
2023/05/09 02:18:40;;;;;;;7.60;4.90;;;;;;;;;;5035513;28;20040;-78
2023/05/09 02:21:06;;;;;;;10.45;5.28;;;;;;;;;;5035600;28;20020;-77
2023/05/09 02:23:32;;;;;;;10.48;5.00;;;;;;;;;;5016836;28;20407;-76
2023/05/09 02:25:59;;;;;;;8.30;4.50;;;;;;;;;;5035326;28;20183;-78
2023/05/09 02:28:25;;;;;;;9.77;4.80;;;;;;;;;;5034874;28;20459;-78
2023/05/09 02:30:52;;;;;;;7.43;4.25;;;;;;;;;;5017703;28;20387;-76
2023/05/09 02:33:18;;;;;;;6.20;5.28;;;;;;;;;;5034414;28;20116;-76
2023/05/09 02:35:45;;;;;;;10.55;5.25;;;;;;;;;;5033673;28;20041;-77
2023/05/09 02:38:18;;;;;;;8.52;5.22;;;;;;;;;;5034456;28;20452;-77
2023/05/09 02:40:46;;;;;;;6.78;4.78;;;;;;;;;;5034817;28;20492;-77
2023/05/09 02:43:13;;;;;;;7.20;4.80;;;;;;;;;;5034535;28;20051;-76
2023/05/09 02:45:43;;;;;;;8.60;4.32;;;;;;;;;;5016571;28;20047;-77
2023/05/09 02:48:09;;;;;;;8.45;4.57;;;;;;;;;;5034428;28;20160;-77
2023/05/09 02:50:37;;;;;;;7.28;4.35;;;;;;;;;;5034311;28;20028;-77
2023/05/09 02:53:03;;;;;;;9.77;5.03;;;;;;;;;;5016962;28;20415;-77
2023/05/09 02:55:29;;;;;;;6.63;4.57;;;;;;;;;;5034489;28;20522;-76
2023/05/09 02:57:55;;;;;;;8.07;4.45;;;;;;;;;;5016138;28;20460;-76
2023/05/09 03:00:23;;;;;;;11.60;4.97;;;;;;;;;;5016747;28;20030;-76
2023/05/09 03:02:50;;;;;;;8.00;4.75;;;;;;;;;;5016321;28;20033;-77
2023/05/09 03:05:16;;;;;;;8.50;4.63;;;;;;;;;;5016987;28;20079;-77
2023/05/09 03:07:43;;;;;;;7.18;4.43;;;;;;;;;;5017918;28;20018;-78
2023/05/09 03:10:12;;;;;;;6.05;4.68;;;;;;;;;;5038321;28;20028;-78
2023/05/09 03:12:38;;;;;;;13.43;5.45;;;;;;;;;;5008048;28;20034;-77
2023/05/09 03:15:10;;;;;;;5.43;4.55;;;;;;;;;;5010643;28;20395;-76
2023/05/09 03:17:36;;;;;;;8.13;3.83;;;;;;;;;;5016735;28;20033;-76
2023/05/09 03:20:06;;;;;;;9.10;4.43;;;;;;;;;;5021510;28;20029;-76
2023/05/09 03:22:32;;;;;;;8.48;4.47;;;;;;;;;;5034921;28;20026;-77
2023/05/09 03:24:59;;;;;;;5.10;3.65;;;;;;;;;;5034101;28;20025;-78
2023/05/09 03:27:28;;;;;;;7.30;4.75;;;;;;;;;;5033766;28;20018;-77
2023/05/09 03:29:54;;;;;;;5.78;4.03;;;;;;;;;;5033669;28;20487;-77
2023/05/09 03:32:20;;;;;;;10.98;5.07;;;;;;;;;;5034230;28;20125;-77
2023/05/09 03:34:46;;;;;;;7.30;3.67;;;;;;;;;;5015647;28;20034;-76
2023/05/09 03:37:12;;;;;;;8.43;4.07;;;;;;;;;;5035335;28;20056;-77
2023/05/09 03:39:41;;;;;;;9.25;3.72;;;;;;;;;;5020245;28;20402;-78
2023/05/09 03:42:07;;;;;;;7.57;4.00;;;;;;;;;;5039758;28;20030;-78
2023/05/09 03:44:33;;;;;;;6.93;3.70;;;;;;;;;;5020882;28;20080;-78
2023/05/09 03:46:59;;;;;;;5.80;4.00;;;;;;;;;;5039616;28;20032;-77
2023/05/09 03:49:25;;;;;;;7.50;3.88;;;;;;;;;;5022094;28;20387;-78
2023/05/09 03:51:51;;;;;;;7.25;4.20;;;;;;;;;;5038134;28;20045;-79
2023/05/09 03:54:19;;;;;;;7.00;4.00;;;;;;;;;;5015885;28;20018;-79
2023/05/09 03:56:45;;;;;;;7.65;3.47;;;;;;;;;;5017770;28;20025;-78
2023/05/09 03:59:11;;;;;;;5.55;3.90;;;;;;;;;;5017890;28;20037;-78
2023/05/09 04:01:40;;;;;;;7.78;3.80;;;;;;;;;;5017213;28;20530;-78
2023/05/09 04:04:06;;;;;;;10.38;3.25;;;;;;;;;;5018556;28;20675;-78
2023/05/09 04:06:33;;;;;;;6.88;3.92;;;;;;;;;;5019920;28;20085;-77
2023/05/09 04:08:59;;;;;;;6.75;3.47;;;;;;;;;;5002935;28;20030;-77
2023/05/09 04:11:25;;;;;;;5.05;3.83;;;;;;;;;;5015204;28;20013;-78
2023/05/09 04:13:51;;;;;;;8.10;4.43;;;;;;;;;;5015366;28;20045;-78
2023/05/09 04:16:20;;;;;;;6.40;3.88;;;;;;;;;;5013254;28;20021;-76
2023/05/09 04:18:46;;;;;;;4.95;3.20;;;;;;;;;;5013177;28;20025;-77
2023/05/09 04:21:12;;;;;;;4.90;2.97;;;;;;;;;;5013097;28;20080;-77
2023/05/09 04:23:38;;;;;;;5.30;3.63;;;;;;;;;;4995560;28;20072;-77
2023/05/09 04:26:05;;;;;;;6.53;3.65;;;;;;;;;;4996987;28;20068;-78
2023/05/09 04:28:31;;;;;;;5.72;3.97;;;;;;;;;;5014641;28;20026;-78
2023/05/09 04:31:05;;;;;;;5.45;3.35;;;;;;;;;;5014481;28;20636;-78
2023/05/09 04:33:31;;;;;;;8.45;4.03;;;;;;;;;;5014313;28;20037;-77
2023/05/09 04:36:00;;;;;;;8.32;3.58;;;;;;;;;;5014143;28;20037;-78
2023/05/09 04:38:26;;;;;;;9.98;3.88;;;;;;;;;;5013258;28;20030;-78
2023/05/09 04:40:54;;;;;;;5.72;3.80;;;;;;;;;;5032890;28;20036;-79
2023/05/09 04:43:25;;;;;;;5.30;4.10;;;;;;;;;;5018682;28;20022;-78
2023/05/09 04:45:54;;;;;;;5.50;3.63;;;;;;;;;;5019102;28;20404;-79
2023/05/09 04:48:20;;;;;;;6.55;3.75;;;;;;;;;;5017924;28;20156;-79
2023/05/09 04:50:47;;;;;;;4.03;3.55;;;;;;;;;;5034802;28;20104;-78
2023/05/09 04:53:20;;;;;;;6.38;3.25;;;;;;;;;;5032543;28;20557;-77
2023/05/09 04:55:47;;;;;;;8.20;3.35;;;;;;;;;;5014969;28;20038;-78
2023/05/09 04:58:16;;;;;;;6.03;3.88;;;;;;;;;;5014786;28;20060;-77
2023/05/09 05:00:44;;;;;;;4.35;3.47;;;;;;;;;;5034324;28;20426;-78
2023/05/09 05:03:10;;;;;;;4.47;3.35;;;;;;;;;;5022391;28;20014;-77
2023/05/09 05:05:39;;;;;;;7.05;3.53;;;;;;;;;;5012331;28;20056;-77
2023/05/09 05:08:07;;;;;;;12.27;3.75;;;;;;;;;;5033759;28;20089;-77
2023/05/09 05:10:34;;;;;;;6.72;3.60;;;;;;;;;;5034361;28;20060;-77
2023/05/09 05:13:00;;;;;;;6.28;3.58;;;;;;;;;;5033889;28;20116;-77
2023/05/09 05:15:26;;;;;;;5.10;3.83;;;;;;;;;;5053071;28;20558;-78
2023/05/09 05:17:54;;;;;;;7.10;3.33;;;;;;;;;;5051740;28;20029;-78
2023/05/09 05:20:21;;;;;;;10.75;3.80;;;;;;;;;;5051935;28;20024;-77
2023/05/09 05:22:47;;;;;;;10.48;3.80;;;;;;;;;;5051734;28;20051;-77
2023/05/09 05:25:13;;;;;;;7.65;3.30;;;;;;;;;;5032910;28;20044;-78
2023/05/09 05:27:39;;;;;;;8.52;3.22;;;;;;;;;;5051678;28;20017;-77
2023/05/09 05:30:06;;;;;;;5.63;3.25;;;;;;;;;;5033403;28;20146;-77
2023/05/09 05:32:32;;;;;;;17.55;3.95;;;;;;;;;;5033737;28;20029;-77
2023/05/09 05:34:58;;;;;;;8.82;3.42;;;;;;;;;;5047992;28;20053;-77
2023/05/09 05:37:24;;;;;;;6.38;3.33;;;;;;;;;;5027821;28;20022;-77
2023/05/09 05:39:51;;;;;;;5.55;2.85;;;;;;;;;;5023261;28;20491;-77
2023/05/09 05:42:17;;;;;;;7.60;3.53;;;;;;;;;;5031698;28;20057;-77
2023/05/09 05:44:43;;;;;;;5.53;3.17;;;;;;;;;;5034538;28;20064;-77
2023/05/09 05:47:09;;;;;;;5.10;3.17;;;;;;;;;;5027854;28;20030;-77
2023/05/09 05:49:37;;;;;;;4.00;2.50;;;;;;;;;;5010749;28;20017;-77
2023/05/09 05:52:03;;;;;;;6.22;3.05;;;;;;;;;;5012022;28;20433;-77
2023/05/09 05:54:30;;;;;;;5.45;2.92;;;;;;;;;;5011612;28;20030;-76
2023/05/09 05:56:56;;;;;;;4.43;2.55;;;;;;;;;;5009852;28;20109;-76
2023/05/09 05:59:24;;;;;;;4.72;2.75;;;;;;;;;;5009970;28;20113;-76
2023/05/09 06:01:53;;;;;;;5.32;2.90;;;;;;;;;;5010115;28;20448;-76
2023/05/09 06:04:19;;;;;;;8.23;2.90;;;;;;;;;;5009352;28;20022;-76
2023/05/09 06:06:47;;;;;;;7.72;2.70;;;;;;;;;;5008013;28;20101;-76
2023/05/09 06:09:13;;;;;;;4.38;2.50;;;;;;;;;;4990841;28;20029;-76
2023/05/09 06:11:39;;;;;;;11.65;3.05;;;;;;;;;;5008457;28;20044;-76
2023/05/09 06:14:08;;;;;;;4.85;2.85;;;;;;;;;;5011697;28;20030;-76
2023/05/09 06:16:36;;;;;;;3.97;2.95;;;;;;;;;;4995423;28;20030;-77
2023/05/09 06:19:02;;;;;;;3.47;2.65;;;;;;;;;;5009546;28;20041;-76
2023/05/09 06:21:29;;;;;;;5.28;2.50;;;;;;;;;;5011388;28;20100;-76
2023/05/09 06:23:55;;;;;;;5.78;3.10;;;;;;;;;;5011401;28;20109;-76
2023/05/09 06:26:21;;;;;;;7.03;3.10;;;;;;;;;;5015384;28;20469;-76
2023/05/09 06:28:47;;;;;;;14.27;3.13;;;;;;;;;;5014912;28;20033;-76
2023/05/09 06:31:13;;;;;;;5.40;2.92;;;;;;;;;;5014865;28;20026;-76
2023/05/09 06:33:39;;;;;;;7.72;3.20;;;;;;;;;;5027976;23;20060;-74
2023/05/09 06:36:05;;;;;;;6.47;2.72;;;;;;;;;;5032386;28;20037;-73
2023/05/09 06:38:31;;;;;;;6.28;3.20;;;;;;;;;;5033715;28;20076;-74
2023/05/09 06:40:57;;;;;;;8.27;3.20;;;;;;;;;;5033174;28;20038;-74
2023/05/09 06:43:23;;;;;;;6.90;3.38;;;;;;;;;;5033505;28;20075;-74
2023/05/09 06:45:49;;;;;;;4.65;2.90;;;;;;;;;;5033347;28;20438;-74
2023/05/09 06:48:15;;;;;;;4.88;2.95;;;;;;;;;;5033509;28;20040;-74
2023/05/09 06:50:41;;;;;;;7.65;3.50;;;;;;;;;;5033296;28;20021;-74
2023/05/09 06:53:07;;;;;;;7.40;3.22;;;;;;;;;;5034041;28;20371;-74
2023/05/09 06:55:33;;;;;;;13.32;3.15;;;;;;;;;;5034202;28;20100;-74
2023/05/09 06:57:59;;;;;;;7.35;3.20;;;;;;;;;;5033863;28;20476;-74
2023/05/09 07:00:25;;;;;;;6.63;3.33;;;;;;;;;;5034060;28;20029;-74
2023/05/09 07:02:51;;;;;;;6.70;3.13;;;;;;;;;;5033902;28;20022;-74
2023/05/09 07:05:17;;;;;;;6.05;2.78;;;;;;;;;;5016035;28;20160;-75
2023/05/09 07:07:44;;;;;;;6.00;2.90;;;;;;;;;;5033850;28;20018;-74
2023/05/09 07:10:10;;;;;;;4.18;2.90;;;;;;;;;;5034059;28;20384;-74
2023/05/09 07:12:36;;;;;;;4.93;2.65;;;;;;;;;;5033980;28;20103;-75
2023/05/09 07:15:02;;;;;;;8.32;3.10;;;;;;;;;;5032452;28;20025;-75
2023/05/09 07:17:29;;;;;;;8.07;3.13;;;;;;;;;;5015822;28;20123;-74
2023/05/09 07:19:55;;;;;;;4.40;2.72;;;;;;;;;;5033990;28;20025;-74
2023/05/09 07:22:21;;;;;;;3.70;2.80;;;;;;;;;;5033292;28;20029;-75
2023/05/09 07:24:47;;;;;;;4.97;2.83;;;;;;;;;;5031628;28;20025;-74
2023/05/09 07:27:13;;;;;;;6.50;2.85;;;;;;;;;;5031596;28;20021;-74
2023/05/09 07:29:39;;;;;;;3.65;2.80;;;;;;;;;;5031779;28;20095;-74
2023/05/09 07:32:05;;;;;;;7.55;3.20;;;;;;;;;;5031696;28;20068;-74
2023/05/09 07:34:31;;;;;;;4.47;2.80;;;;;;;;;;5031352;28;20041;-75
2023/05/09 07:36:57;;;;;;;8.60;3.00;;;;;;;;;;5032354;28;20034;-75
2023/05/09 07:39:23;;;;;;;9.88;3.72;;;;;;;;;;5033335;28;20025;-75
2023/05/09 07:41:49;;;;;;;6.93;3.33;;;;;;;;;;5033336;28;20025;-74
2023/05/09 07:44:15;;;;;;;8.38;3.33;;;;;;;;;;5033271;28;20083;-75
2023/05/09 07:46:41;;;;;;;4.10;2.53;;;;;;;;;;5032289;28;20032;-75
2023/05/09 07:49:07;;;;;;;4.70;3.00;;;;;;;;;;5015392;28;20479;-75
2023/05/09 07:51:33;;;;;;;6.78;3.20;;;;;;;;;;5033048;28;20034;-74
2023/05/09 07:54:00;;;;;;;5.85;3.42;;;;;;;;;;5032912;28;20037;-74
2023/05/09 07:56:26;;;;;;;8.40;2.97;;;;;;;;;;5032690;28;20431;-74
2023/05/09 07:58:52;;;;;;;4.82;2.85;;;;;;;;;;5032861;28;20159;-74
2023/05/09 08:01:18;;;;;;;7.93;3.33;;;;;;;;;;5032816;28;20080;-74
2023/05/09 08:03:44;;;;;;;4.25;2.90;;;;;;;;;;5033156;28;20104;-74
2023/05/09 08:06:10;;;;;;;7.60;2.95;;;;;;;;;;5033325;28;20135;-75
2023/05/09 08:08:36;;;;;;;7.47;3.10;;;;;;;;;;5032560;28;20112;-74
2023/05/09 08:11:02;;;;;;;17.65;3.08;;;;;;;;;;5032835;28;20044;-75
2023/05/09 08:13:28;;;;;;;7.10;3.13;;;;;;;;;;5032547;28;20555;-73
2023/05/09 08:15:54;;;;;;;7.57;3.33;;;;;;;;;;5032399;28;20156;-75
2023/05/09 08:18:20;;;;;;;6.65;2.92;;;;;;;;;;5032584;28;20387;-75
2023/05/09 08:20:46;;;;;;;9.27;3.75;;;;;;;;;;5032712;28;20021;-74
2023/05/09 08:23:12;;;;;;;10.25;2.60;;;;;;;;;;5014361;28;20035;-75
2023/05/09 08:25:39;;;;;;;5.05;2.90;;;;;;;;;;5032784;28;20066;-74
2023/05/09 08:28:05;;;;;;;5.03;2.90;;;;;;;;;;5033400;28;20475;-74
2023/05/09 08:30:31;;;;;;;6.78;2.80;;;;;;;;;;5032864;28;20072;-75
2023/05/09 08:32:57;;;;;;;10.75;3.22;;;;;;;;;;5032640;28;20060;-74
2023/05/09 08:35:23;;;;;;;2.97;2.67;;;;;;;;;;5032447;28;20037;-75
2023/05/09 08:37:50;;;;;;;5.05;2.47;;;;;;;;;;5031872;28;20356;-74
2023/05/09 08:40:16;;;;;;;7.10;3.22;;;;;;;;;;5032441;28;20084;-74
2023/05/09 08:42:44;;;;;;;4.55;2.45;;;;;;;;;;5031818;28;20030;-74
2023/05/09 08:45:13;;;;;;;5.10;2.22;;;;;;;;;;5032016;28;20522;-75
2023/05/09 08:47:41;;;;;;;7.13;2.45;;;;;;;;;;5031391;28;20029;-75
2023/05/09 08:50:08;;;;;;;7.65;2.88;;;;;;;;;;5032020;28;20025;-73
2023/05/09 08:52:35;;;;;;;6.97;3.22;;;;;;;;;;5014650;28;20116;-74
2023/05/09 08:55:03;;;;;;;6.03;2.75;;;;;;;;;;5031578;28;20033;-74
2023/05/09 08:57:31;;;;;;;5.38;2.58;;;;;;;;;;5037955;28;20498;-74
2023/05/09 08:59:58;;;;;;;6.28;3.22;;;;;;;;;;5032415;28;20431;-74
2023/05/09 09:02:24;;;;;;;11.20;3.53;;;;;;;;;;5031786;28;20376;-74
2023/05/09 09:04:50;;;;;;;9.20;2.70;;;;;;;;;;5031984;28;20025;-74
2023/05/09 09:07:17;;;;;;;4.22;2.90;;;;;;;;;;5043569;28;20010;-74
2023/05/09 09:09:46;;;;;;;8.93;3.20;;;;;;;;;;5030237;28;20017;-75
2023/05/09 09:12:14;;;;;;;7.55;3.60;;;;;;;;;;5031604;28;20075;-74
2023/05/09 09:14:42;;;;;;;6.55;2.78;;;;;;;;;;5031455;28;20083;-74
2023/05/09 09:17:09;;;;;;;6.50;2.70;;;;;;;;;;5031176;28;20119;-74
2023/05/09 09:19:36;;;;;;;11.93;3.13;;;;;;;;;;5029904;28;20033;-73
2023/05/09 09:22:03;;;;;;;4.80;2.55;;;;;;;;;;5029647;28;20041;-75
2023/05/09 09:24:31;;;;;;;3.53;2.70;;;;;;;;;;5029771;28;20024;-75
2023/05/09 09:26:57;;;;;;;5.88;3.20;;;;;;;;;;5029692;28;20037;-74
2023/05/09 09:29:23;;;;;;;10.65;3.47;;;;;;;;;;5029699;28;20121;-73
2023/05/09 09:31:56;;;;;;;5.18;3.15;;;;;;;;;;5030005;28;20032;-73
2023/05/09 09:34:23;;;;;;;3.42;2.85;;;;;;;;;;5030420;28;20060;-74
2023/05/09 09:36:49;;;;;;;6.40;2.88;;;;;;;;;;5031437;28;20108;-74
2023/05/09 09:39:15;;;;;;;6.28;2.90;;;;;;;;;;5029705;28;20104;-74
2023/05/09 09:41:43;;;;;;;8.43;3.03;;;;;;;;;;5029439;28;20761;-74
2023/05/09 09:44:10;;;;;;;4.35;2.55;;;;;;;;;;5029491;28;20096;-74
2023/05/09 09:46:55;;;;;;;49.53;6.20;;;;;;;;;;5029024;28;20029;-74
2023/05/09 09:49:25;;;;;;;14.48;3.38;;;;;;;;;;5029107;28;20024;-74
2023/05/09 09:51:51;;;;;;;5.13;2.58;;;;;;;;;;5029550;28;20424;-74
2023/05/09 09:54:17;;;;;;;3.42;2.30;;;;;;;;;;5012270;28;20025;-74
2023/05/09 09:56:45;;;;;;;4.25;2.60;;;;;;;;;;5031089;28;20021;-74
2023/05/09 09:59:12;;;;;;;5.97;2.85;;;;;;;;;;5031037;28;20038;-74
2023/05/09 10:01:57;;;;;;;6.82;2.80;;;;;;;;;;5035265;28;20021;-74
2023/05/09 10:04:24;;;;;;;6.22;2.92;;;;;;;;;;5035080;28;20025;-74
2023/05/09 10:06:54;;;;;;;3.67;2.72;;;;;;;;;;5035133;28;20155;-75
2023/05/09 10:09:26;;;;;;;7.53;3.53;;;;;;;;;;5034747;28;20117;-74
2023/05/09 10:11:53;;;;;;;6.63;3.25;;;;;;;;;;5034861;28;20032;-75
2023/05/09 10:14:20;;;;;;;7.18;3.00;;;;;;;;;;5034856;28;20076;-74
2023/05/09 10:16:51;;;;;;;4.00;3.10;;;;;;;;;;5035068;28;20502;-75
2023/05/09 10:19:19;;;;;;;9.10;3.38;;;;;;;;;;5017022;28;20026;-75
2023/05/09 10:21:48;;;;;;;5.70;3.28;;;;;;;;;;5034631;28;20059;-74
2023/05/09 10:24:15;;;;;;;5.28;2.50;;;;;;;;;;5034726;28;20017;-74
2023/05/09 10:26:45;;;;;;;10.93;3.03;;;;;;;;;;5016927;28;20052;-74
2023/05/09 10:29:12;;;;;;;4.40;3.28;;;;;;;;;;5034483;28;20066;-74
2023/05/09 10:31:38;;;;;;;9.05;3.53;;;;;;;;;;5034461;28;20057;-74
2023/05/09 10:34:07;;;;;;;4.53;2.40;;;;;;;;;;5016329;28;20124;-74
2023/05/09 10:36:33;;;;;;;7.55;3.58;;;;;;;;;;5034600;28;20022;-75
2023/05/09 10:39:00;;;;;;;8.82;3.45;;;;;;;;;;5034238;28;20024;-74
2023/05/09 10:41:27;;;;;;;4.55;2.60;;;;;;;;;;5034640;28;20032;-74
2023/05/09 10:43:56;;;;;;;5.55;2.42;;;;;;;;;;5034350;28;20040;-74
2023/05/09 10:46:23;;;;;;;6.30;2.75;;;;;;;;;;5034313;28;20029;-74
2023/05/09 10:48:49;;;;;;;6.10;3.05;;;;;;;;;;5033911;28;20124;-74
2023/05/09 10:51:16;;;;;;;7.63;2.70;;;;;;;;;;5034449;28;20108;-74
2023/05/09 10:53:43;;;;;;;8.38;2.80;;;;;;;;;;5033999;28;20434;-75
2023/05/09 10:56:21;;;;;;;7.90;3.05;;;;;;;;;;5034357;28;20407;-74
2023/05/09 10:58:47;;;;;;;5.40;2.40;;;;;;;;;;5033834;28;20025;-75
2023/05/09 11:01:13;;;;;;;4.55;2.53;;;;;;;;;;5034110;28;20025;-75
2023/05/09 11:03:52;;;;;;;3.85;2.72;;;;;;;;;;5033651;28;20542;-73
2023/05/09 11:06:45;;;;;;;7.78;3.15;;;;;;;;;;5034144;28;20026;-74
2023/05/09 11:09:31;;;;;;;4.53;2.53;;;;;;;;;;5032863;28;20525;-73
2023/05/09 11:12:04;;;;;;;4.15;2.20;;;;;;;;;;5034644;28;20029;-74
2023/05/09 11:14:30;;;;;;;9.80;2.17;;;;;;;;;;5036485;28;20022;-73
2023/05/09 11:17:00;;;;;;;5.18;2.50;;;;;;;;;;5037386;28;20530;-74
2023/05/09 11:19:38;;;;;;;2.10;1.87;;;;;;;;;;5037500;28;20029;-75
2023/05/09 11:22:12;;;;;;;7.57;2.30;;;;;;;;;;5037099;28;20029;-74
2023/05/09 11:24:39;;;;;;;11.63;2.55;;;;;;;;;;5034171;28;20096;-74
2023/05/09 11:27:34;;;;;;;5.07;1.95;;;;;;;;;;5033957;28;20108;-74
2023/05/09 11:30:04;;;;;;;17.90;3.15;;;;;;;;;;5012454;28;20095;-74
2023/05/09 11:32:34;;;;;;;27.77;3.53;;;;;;;;;;5033761;28;20028;-74
2023/05/09 11:35:11;;;;;;;12.77;2.60;;;;;;;;;;5032919;28;20022;-74
2023/05/09 11:38:00;;;;;;;27.00;4.30;;;;;;;;;;5032157;28;20041;-74
2023/05/09 11:40:27;;;;;;;4.15;2.00;;;;;;;;;;5002396;28;20072;-74
2023/05/09 11:42:54;;;;;;;6.43;2.03;;;;;;;;;;5014653;28;20032;-74
2023/05/09 11:45:20;;;;;;;9.57;2.33;;;;;;;;;;5032176;28;20460;-73
2023/05/09 11:47:47;;;;;;;187.45;12.07;;;;;;;;;;5032373;28;20053;-75
2023/05/09 11:50:13;;;;;;;5.57;2.10;;;;;;;;;;5032336;28;20043;-74
2023/05/09 11:52:40;;;;;;;6.07;1.85;;;;;;;;;;5032144;28;20064;-74
2023/05/09 11:55:10;;;;;;;7.55;2.15;;;;;;;;;;5031992;28;20033;-74
2023/05/09 11:57:43;;;;;;;3.47;2.00;;;;;;;;;;5030830;28;20041;-74
2023/05/09 12:00:10;;;;;;;4.72;2.15;;;;;;;;;;5030673;28;20495;-74
2023/05/09 12:02:37;;;;;;;25.45;3.67;;;;;;;;;;5030882;28;20091;-74
2023/05/09 12:05:08;;;;;;;3.58;2.15;;;;;;;;;;5013225;28;20018;-74
2023/05/09 12:07:35;;;;;;;3.15;1.80;;;;;;;;;;5030873;28;20483;-74
2023/05/09 12:10:03;;;;;;;6.28;2.25;;;;;;;;;;5030716;28;20017;-74
2023/05/09 12:12:29;;;;;;;10.55;2.45;;;;;;;;;;5031957;28;20028;-74
2023/05/09 12:14:55;;;;;;;3.55;1.90;;;;;;;;;;5031907;28;20036;-74
2023/05/09 12:17:21;;;;;;;3.92;1.92;;;;;;;;;;5031863;28;20082;-74
2023/05/09 12:19:47;;;;;;;4.05;1.85;;;;;;;;;;5031646;28;20104;-75
2023/05/09 12:22:13;;;;;;;5.80;1.77;;;;;;;;;;5030855;28;20160;-74
2023/05/09 12:24:39;;;;;;;4.38;2.28;;;;;;;;;;5030984;28;20021;-74
2023/05/09 12:27:06;;;;;;;4.90;2.15;;;;;;;;;;5031791;28;20487;-74
2023/05/09 12:29:32;;;;;;;4.10;2.08;;;;;;;;;;5031903;28;20391;-72
2023/05/09 12:31:59;;;;;;;7.30;2.40;;;;;;;;;;5013548;28;20038;-73
2023/05/09 12:36:58;;;;;;;5.17;1.67;;;;;;;;;;5010016;28;20054;-77
2023/05/09 12:39:25;;;;;;;3.88;1.75;;;;;;;;;;5012502;28;20476;-78
2023/05/09 12:41:52;;;;;;;9.52;2.55;;;;;;;;;;5013990;28;20022;-77
2023/05/09 12:44:22;;;;;;;9.05;2.03;;;;;;;;;;5012748;28;20056;-78
2023/05/09 12:46:54;;;;;;;2.75;1.60;;;;;;;;;;5014381;28;20029;-77
2023/05/09 12:49:21;;;;;;;5.38;2.17;;;;;;;;;;5014418;28;20057;-77
2023/05/09 12:51:48;;;;;;;2.28;1.80;;;;;;;;;;5031286;28;20027;-77
2023/05/09 12:54:19;;;;;;;3.60;2.20;;;;;;;;;;5031556;28;20026;-77
2023/05/09 12:56:46;;;;;;;13.15;2.63;;;;;;;;;;5031947;28;20018;-77
2023/05/09 12:59:14;;;;;;;5.10;2.20;;;;;;;;;;5015164;28;20028;-77
2023/05/09 13:01:40;;;;;;;3.75;2.10;;;;;;;;;;5018323;28;20475;-76
2023/05/09 13:04:10;;;;;;;5.03;2.33;;;;;;;;;;5019642;28;20093;-76
2023/05/09 13:06:47;;;;;;;3.88;1.92;;;;;;;;;;5015040;28;20060;-77
2023/05/09 13:09:13;;;;;;;5.80;2.65;;;;;;;;;;5032161;28;20060;-77
2023/05/09 13:11:39;;;;;;;4.57;2.15;;;;;;;;;;5013310;28;20029;-77
2023/05/09 13:14:08;;;;;;;14.27;3.53;;;;;;;;;;5014070;28;20403;-77
2023/05/09 13:16:35;;;;;;;9.80;2.65;;;;;;;;;;5013907;28;20018;-77
2023/05/09 13:19:01;;;;;;;7.43;2.35;;;;;;;;;;5031712;28;20025;-77
2023/05/09 13:21:27;;;;;;;3.10;2.03;;;;;;;;;;5014049;28;20032;-77
2023/05/09 13:23:53;;;;;;;9.25;2.65;;;;;;;;;;5013720;28;20026;-77
2023/05/09 13:26:20;;;;;;;5.03;2.00;;;;;;;;;;5013972;28;20025;-77
2023/05/09 13:28:46;;;;;;;2.17;1.85;;;;;;;;;;5013816;28;20108;-77
2023/05/09 13:31:12;;;;;;;5.43;2.28;;;;;;;;;;5014292;28;20022;-77
2023/05/09 13:33:38;;;;;;;2.47;1.90;;;;;;;;;;5016157;28;20033;-77
2023/05/09 13:36:05;;;;;;;2.58;1.95;;;;;;;;;;5019607;28;20041;-77
2023/05/09 13:38:35;;;;;;;2.97;2.28;;;;;;;;;;5020495;28;20052;-77
2023/05/09 13:41:01;;;;;;;7.95;3.50;;;;;;;;;;5020545;28;20037;-76
2023/05/09 13:43:27;;;;;;;9.95;3.28;;;;;;;;;;5020126;28;20156;-77
2023/05/09 13:45:56;;;;;;;4.72;2.15;;;;;;;;;;5038096;28;20025;-76
2023/05/09 13:48:22;;;;;;;6.32;2.50;;;;;;;;;;5037928;28;20026;-77
2023/05/09 13:50:49;;;;;;;3.47;2.35;;;;;;;;;;5038218;28;20475;-76
2023/05/09 13:53:20;;;;;;;7.70;3.03;;;;;;;;;;5020239;28;20487;-76
2023/05/09 13:55:50;;;;;;;4.13;2.25;;;;;;;;;;5020260;28;20034;-77
2023/05/09 13:58:16;;;;;;;3.88;2.38;;;;;;;;;;5019860;28;20071;-76
2023/05/09 14:00:42;;;;;;;7.13;2.47;;;;;;;;;;5038173;28;20034;-76
2023/05/09 14:03:08;;;;;;;5.63;2.75;;;;;;;;;;5020275;28;20443;-76
2023/05/09 14:05:34;;;;;;;4.68;2.35;;;;;;;;;;5037353;28;20091;-77
2023/05/09 14:08:06;;;;;;;2.58;2.10;;;;;;;;;;5036221;28;20376;-77
2023/05/09 14:10:32;;;;;;;3.60;2.10;;;;;;;;;;5036080;28;20029;-77
2023/05/09 14:12:59;;;;;;;11.52;3.20;;;;;;;;;;5018513;28;20099;-76
2023/05/09 14:15:25;;;;;;;8.02;2.35;;;;;;;;;;5036064;28;20028;-76
2023/05/09 14:17:51;;;;;;;2.35;2.13;;;;;;;;;;5036429;28;20383;-76
2023/05/09 14:20:17;;;;;;;5.78;2.72;;;;;;;;;;5018597;28;20083;-77
2023/05/09 14:22:43;;;;;;;4.75;2.30;;;;;;;;;;5037282;28;20021;-77
2023/05/09 14:25:12;;;;;;;4.95;2.42;;;;;;;;;;5019752;28;20061;-77
2023/05/09 14:27:41;;;;;;;5.05;2.65;;;;;;;;;;5037685;28;20446;-75
2023/05/09 14:30:07;;;;;;;3.72;2.42;;;;;;;;;;5037665;28;20021;-76
2023/05/09 14:32:33;;;;;;;7.85;2.75;;;;;;;;;;5037675;28;20029;-77
2023/05/09 14:35:00;;;;;;;6.78;2.95;;;;;;;;;;5019317;28;20033;-76
2023/05/09 14:37:26;;;;;;;3.45;2.33;;;;;;;;;;5037588;28;20167;-77
2023/05/09 14:39:52;;;;;;;5.55;2.40;;;;;;;;;;5038035;28;20384;-77
2023/05/09 14:42:18;;;;;;;6.00;2.95;;;;;;;;;;5019945;28;20501;-76
2023/05/09 14:44:46;;;;;;;10.77;2.40;;;;;;;;;;5018610;28;20079;-77